Latest Weather Observations for Cape Flattery

IDQ60801

Issued at 10:32 pm EST Wednesday 7 December 2016 (issued every 30 minutes, with the page automatically refreshed every 10 minutes)

About weather observations | Map of weather stations | Latest weather observations for QLD | Other Formats
Station Details ID: 031213 Name: CAPE FLATTERY Lat: -14.97 Lon: 145.31 Height: 18.5 m
Data from the previous 72 hours. | See also: Recent months at Cape Flattery
Date/Time
EST
Temp
°C
App
Temp
°C
Dew
Point
°C
Rel
Hum
%
Delta-T
°C
Wind Press
QNH
hPa
Press
MSL
hPa
Rain since
9am
mm
Dir  Spd
km/h
Gust
km/h
Spd
kts
Gust
kts
07/10:00pm 25.9 28.4 24.7 93 0.8 SE 20 28 11 15 1011.2 1011.1 0.6
07/09:30pm 25.6 28.7 24.2 92 1.0 SE 15 22 8 12 1011.2 1011.1 0.6
07/09:00pm 26.5 28.2 24.0 86 1.7 SSE 22 30 12 16 1011.0 1010.9 0.0
07/08:30pm 26.1 26.9 23.2 84 2.0 SE 24 30 13 16 1010.8 1010.7 0.0
07/08:00pm 26.5 26.8 23.6 84 2.0 SSE 28 35 15 19 1010.8 1010.7 0.0
07/07:30pm 26.7 26.9 23.4 82 2.3 SSE 28 35 15 19 1010.6 1010.5 0.0
07/07:00pm 26.7 26.2 22.8 79 2.6 SSE 30 39 16 21 1010.3 1010.2 0.0
07/06:30pm 26.8 27.6 23.1 80 2.5 SE 24 32 13 17 1010.2 1010.1 0.0
07/06:00pm 27.4 27.0 22.4 74 3.4 SSE 28 35 15 19 1010.2 1010.1 0.0
07/05:30pm 28.2 28.0 22.7 72 3.7 SSE 28 35 15 19 1010.1 1010.0 0.0
07/05:00pm 28.6 28.0 22.6 70 4.1 SSE 30 37 16 20 1009.7 1009.6 0.0
07/04:30pm 29.0 28.0 23.0 70 4.1 SSE 33 43 18 23 1009.4 1009.3 0.0
07/04:00pm 29.7 28.3 22.2 64 5.1 SSE 33 41 18 22 1009.4 1009.3 0.0
07/03:30pm 29.4 28.5 22.1 65 4.9 SE 30 37 16 20 1009.4 1009.3 0.0
07/03:00pm 28.6 28.2 22.3 68 4.3 SSE 28 35 15 19 1009.7 1009.6 0.0
07/02:30pm 30.0 29.5 22.2 63 5.3 SE 28 37 15 20 1010.0 1009.9 0.0
07/02:00pm 30.4 29.6 23.3 66 4.9 SE 33 44 18 24 1010.3 1010.2 0.0
07/01:30pm 31.4 30.2 21.6 56 6.6 SE 30 41 16 22 1010.5 1010.4 0.0
07/01:00pm 32.0 31.8 22.7 58 6.4 SE 28 39 15 21 1010.7 1010.6 0.0
07/12:30pm 31.2 30.6 21.9 57 6.3 SSE 28 41 15 22 1010.9 1010.8 0.0
07/12:00pm 32.2 31.9 22.6 57 6.6 SSE 28 37 15 20 1011.1 1011.0 0.0
07/11:30am 31.5 30.5 21.9 56 6.5 SSE 30 39 16 21 1011.3 1011.2 0.0
07/11:00am 31.0 30.1 20.6 54 6.9 SSE 26 35 14 19 1011.4 1011.3 0.0
07/10:30am 30.8 29.7 21.0 56 6.6 SE 28 37 15 20 1011.5 1011.4 0.0
07/10:00am 31.9 32.1 22.0 55 6.7 SE 24 35 13 19 1011.7 1011.6 0.0
07/09:30am 30.1 29.7 20.9 57 6.1 SE 24 33 13 18 1011.8 1011.7 0.0
07/09:00am 30.0 29.7 21.1 59 5.9 SE 24 33 13 18 1011.9 1011.8 0.0
07/08:30am 29.3 29.2 20.7 59 5.7 SE 22 28 12 15 1012.0 1011.9 0.0
07/08:00am 28.9 29.3 20.9 62 5.3 SE 20 30 11 16 1011.7 1011.6 0.0
07/07:30am 27.8 27.4 20.1 63 5.0 SE 22 30 12 16 1011.4 1011.3 0.0
07/07:00am 27.8 27.8 20.1 63 5.0 SE 20 30 11 16 1011.0 1010.9 0.0
07/06:30am 26.8 26.7 19.9 66 4.5 SE 20 30 11 16 1010.6 1010.5 0.0
07/06:00am 25.8 26.2 19.9 70 3.8 SE 17 24 9 13 1010.2 1010.1 0.0
07/05:30am 25.4 25.8 19.8 71 3.6 SE 17 24 9 13 1009.8 1009.7 0.0
07/05:00am 25.7 26.1 19.8 70 3.8 ESE 17 24 9 13 1009.7 1009.6 0.0
07/04:30am 25.4 25.2 18.6 66 4.3 ESE 17 24 9 13 1009.3 1009.2 0.0
07/04:00am 25.8 25.2 18.5 64 4.6 ESE 19 26 10 14 1009.2 1009.1 0.0
07/03:30am 26.1 25.0 17.7 60 5.3 ESE 20 28 11 15 1009.1 1009.0 0.0
07/03:00am 26.2 24.5 18.1 61 5.1 ESE 24 35 13 19 1009.0 1008.9 0.0
07/02:30am 26.3 25.0 18.2 61 5.1 ESE 22 35 12 19 1009.1 1009.0 0.0
07/02:00am 26.3 24.3 19.2 65 4.6 ESE 28 37 15 20 1009.4 1009.3 0.0
07/01:30am 26.3 24.8 19.4 66 4.5 ESE 26 35 14 19 1009.5 1009.4 0.0
07/01:00am 26.5 25.2 19.9 67 4.3 ESE 26 35 14 19 1009.8 1009.7 0.0
07/12:30am 26.4 25.7 19.5 66 4.5 ESE 22 37 12 20 1010.2 1010.1 0.0
07/12:00am 26.7 25.1 19.3 64 4.8 ESE 26 39 14 21 1010.7 1010.6 0.0
 
Date/Time
EST
Temp
°C
App
Temp
°C
Dew
Point
°C
Rel
Hum
%
Delta-T
°C
Wind Press
QNH
hPa
Press
MSL
hPa
Rain since
9am
mm
Dir  Spd
km/h
Gust
km/h
Spd
kts
Gust
kts
06/11:30pm 27.0 25.5 20.3 66 4.4 SE 28 37 15 20 1010.8 1010.7 0.0
06/11:00pm 26.9 26.2 20.3 67 4.3 SE 24 37 13 20 1011.1 1011.0 0.0
06/10:30pm 26.9 25.7 20.0 66 4.5 SE 26 35 14 19 1011.4 1011.3 0.0
06/10:00pm 26.9 25.3 20.0 66 4.5 SE 28 41 15 22 1011.4 1011.3 0.0
06/09:30pm 26.8 26.2 20.4 68 4.2 SE 24 35 13 19 1011.3 1011.2 0.0
06/09:00pm 26.9 26.4 20.7 69 4.1 SE 24 35 13 19 1011.0 1010.9 0.0
06/08:30pm 27.0 26.1 20.6 68 4.2 SE 26 37 14 20 1010.9 1010.8 0.0
06/08:00pm 26.9 26.5 21.0 70 3.9 SE 24 37 13 20 1010.7 1010.6 0.0
06/07:30pm 27.1 26.3 20.9 69 4.1 SE 26 35 14 19 1010.7 1010.6 0.0
06/07:00pm 27.1 26.7 20.9 69 4.1 SE 24 32 13 17 1010.5 1010.4 0.0
06/06:30pm 27.2 26.5 21.0 69 4.1 SE 26 39 14 21 1010.3 1010.2 0.0
06/06:00pm 27.7 26.2 21.0 67 4.4 SE 30 39 16 21 1010.1 1010.0 0.0
06/05:30pm 28.2 26.6 20.7 63 5.0 SE 30 39 16 21 1009.8 1009.7 0.0
06/05:00pm 29.2 27.7 20.9 61 5.5 SE 30 41 16 22 1009.6 1009.5 0.0
06/04:30pm 30.1 28.6 21.7 60 5.7 SE 32 43 17 23 1009.5 1009.4 0.0
06/04:00pm 30.4 28.8 21.8 60 5.8 SE 33 43 18 23 1009.5 1009.4 0.0
06/03:30pm 30.8 28.6 20.4 54 6.9 SE 32 46 17 25 1009.6 1009.5 0.0
06/03:00pm 30.6 28.8 21.1 57 6.4 SE 32 44 17 24 1010.0 1009.9 0.0
06/02:30pm 30.7 27.9 20.3 53 6.9 SE 35 44 19 24 1010.5 1010.4 0.0
06/02:00pm 31.9 29.1 21.1 52 7.3 SE 37 46 20 25 1011.0 1010.9 0.0
06/01:30pm 31.2 28.0 21.1 55 6.8 SSE 39 50 21 27 1011.2 1011.1 0.0
06/01:00pm 31.7 28.6 21.2 53 7.1 SE 39 48 21 26 1011.5 1011.4 0.0
06/12:30pm 32.5 30.0 21.7 53 7.3 SE 37 50 20 27 1012.0 1011.9 0.0
06/12:00pm 31.7 29.3 21.8 55 6.7 SSE 37 46 20 25 1012.4 1012.3 0.0
06/11:30am 31.2 28.9 20.5 53 7.1 SE 33 46 18 25 1012.6 1012.5 0.0
06/11:00am 31.1 29.2 21.3 56 6.6 SE 33 43 18 23 1013.1 1013.0 0.0
06/10:30am 31.6 29.8 21.2 54 7.0 SE 32 41 17 22 1013.2 1013.1 0.0
06/10:00am 30.5 28.6 21.0 57 6.3 SE 32 41 17 22 1013.5 1013.4 0.0
06/09:30am 30.3 28.0 20.2 54 6.7 SE 32 43 17 23 1013.7 1013.6 0.0
06/09:00am 30.2 28.5 21.3 59 6.0 SE 32 39 17 21 1013.7 1013.6 0.0
06/08:30am 29.1 27.1 20.8 61 5.5 SE 32 39 17 21 1013.5 1013.4 0.0
06/08:00am 29.8 29.3 21.5 61 5.6 SE 26 39 14 21 1013.3 1013.2 0.0
06/07:30am 28.8 27.0 20.3 60 5.6 ESE 30 39 16 21 1013.1 1013.0 0.0
06/07:00am 28.1 27.3 20.9 65 4.8 SE 26 32 14 17 1012.9 1012.8 0.0
06/06:30am 27.4 26.1 20.7 67 4.4 SE 28 35 15 19 1012.4 1012.3 0.0
06/06:00am 26.7 25.6 20.3 68 4.2 SE 26 35 14 19 1012.0 1011.9 0.0
06/05:30am 26.5 26.1 21.0 72 3.6 SE 24 33 13 18 1011.5 1011.4 0.0
06/05:00am 26.6 25.2 20.4 69 4.1 SE 28 39 15 21 1011.2 1011.1 0.0
06/04:30am 26.3 26.3 20.2 69 4.0 ESE 20 32 11 17 1010.9 1010.8 0.0
06/04:00am 26.4 25.8 20.5 70 3.9 SE 24 33 13 18 1010.4 1010.3 0.0
06/03:30am 26.4 26.2 20.5 70 3.9 SE 22 30 12 16 1010.3 1010.2 0.0
06/03:00am 26.3 26.0 20.4 70 3.9 SE 22 35 12 19 1010.3 1010.2 0.0
06/02:30am 26.6 26.1 20.7 70 3.9 SE 24 32 13 17 1010.3 1010.2 0.0
06/02:00am 26.5 24.9 20.1 68 4.2 SE 28 37 15 20 1010.4 1010.3 0.0
06/01:30am 26.6 24.8 19.5 65 4.6 SE 28 39 15 21 1010.7 1010.6 0.0
06/01:00am 26.8 25.8 20.4 68 4.2 SE 26 37 14 20 1011.0 1010.9 0.0
06/12:30am 26.7 26.0 20.3 68 4.2 SE 24 35 13 19 1011.4 1011.3 0.0
06/12:00am 26.7 25.7 19.6 65 4.6 ESE 24 33 13 18 1011.8 1011.7 0.0
 
Date/Time
EST
Temp
°C
App
Temp
°C
Dew
Point
°C
Rel
Hum
%
Delta-T
°C
Wind Press
QNH
hPa
Press
MSL
hPa
Rain since
9am
mm
Dir  Spd
km/h
Gust
km/h
Spd
kts
Gust
kts
05/11:30pm 26.8 24.9 19.4 64 4.8 SE 28 39 15 21 1011.8 1011.7 0.0
05/11:00pm 26.9 25.1 20.3 67 4.3 SE 30 41 16 22 1011.8 1011.7 0.0
05/10:30pm 27.0 25.5 20.3 66 4.4 SE 28 43 15 23 1011.8 1011.7 0.0
05/10:00pm 26.7 25.4 19.8 66 4.5 SE 26 37 14 20 1012.0 1011.9 0.0
05/09:30pm 26.9 25.4 20.3 67 4.3 ESE 28 39 15 21 1011.9 1011.8 0.0
05/09:00pm 27.1 25.9 20.9 69 4.1 SE 28 41 15 22 1011.8 1011.7 0.0
05/08:30pm 27.0 25.4 20.1 66 4.5 SE 28 37 15 20 1011.7 1011.6 0.0
05/08:00pm 27.2 25.8 20.5 67 4.4 SE 28 39 15 21 1011.6 1011.5 0.0
05/07:30pm 27.0 25.0 19.9 65 4.6 SE 30 41 16 22 1011.4 1011.3 0.0
05/07:00pm 27.1 25.2 19.4 62 5.0 SE 28 41 15 22 1011.1 1011.0 0.0
05/06:30pm 27.3 24.9 19.9 64 4.8 SE 32 39 17 21 1011.1 1011.0 0.0
05/06:00pm 28.1 25.7 19.9 61 5.4 SE 32 43 17 23 1011.1 1011.0 0.0
05/05:30pm 28.5 25.9 20.0 60 5.6 SE 33 43 18 23 1011.0 1010.9 0.0
05/05:00pm 28.9 26.8 19.8 58 6.0 SE 30 39 16 21 1010.8 1010.7 0.0
05/04:30pm 29.1 26.5 20.0 58 6.0 SE 33 44 18 24 1010.7 1010.6 0.0
05/04:00pm 30.3 28.0 20.5 55 6.5 SE 33 43 18 23 1010.6 1010.5 0.0
05/03:30pm 31.1 28.5 20.7 54 6.9 SE 35 44 19 24 1010.7 1010.6 0.0
05/03:00pm 31.1 28.6 19.8 51 7.4 SE 32 43 17 23 1010.9 1010.8 0.0
05/02:30pm 31.0 28.2 19.4 50 7.6 SE 33 44 18 24 1011.0 1010.9 0.0
05/02:00pm 31.6 28.5 19.6 49 7.9 SE 35 44 19 24 1011.3 1011.2 0.0
05/01:30pm 31.6 28.6 19.9 50 7.7 SE 35 44 19 24 1011.5 1011.4 0.0
05/01:00pm 31.4 28.3 19.7 49 7.7 SSE 35 43 19 23 1011.8 1011.7 0.0
05/12:30pm 31.3 28.1 20.3 52 7.3 SE 37 46 20 25 1012.2 1012.1 0.0
05/12:00pm 31.3 29.2 20.9 54 7.0 SE 33 44 18 24 1012.5 1012.4 0.0
05/11:30am 30.6 27.6 19.9 52 7.0 SE 35 43 19 23 1012.8 1012.7 0.0
05/11:00am 31.6 29.3 20.2 50 7.6 SE 32 43 17 23 1013.2 1013.1 0.0
05/10:30am 30.8 28.2 19.5 51 7.4 SE 32 43 17 23 1013.4 1013.3 0.0
05/10:00am 31.0 28.6 20.3 53 7.1 SE 33 46 18 25 1013.6 1013.5 0.0
05/09:30am 30.7 28.8 20.9 56 6.5 SE 32 44 17 24 1013.6 1013.5 0.0
05/09:00am 29.1 26.5 19.4 55 6.3 SE 32 43 17 23 1013.7 1013.6 0.0
05/08:30am 29.4 27.2 20.3 58 6.0 SE 32 43 17 23 1013.4 1013.3 0.0
05/08:00am 28.3 26.4 20.1 61 5.4 SE 30 39 16 21 1013.2 1013.1 0.0
05/07:30am 28.5 26.5 19.2 57 6.0 SE 28 41 15 22 1013.0 1012.9 0.0
05/07:00am 27.6 25.9 19.9 63 5.0 SE 28 37 15 20 1012.9 1012.8 0.0
05/06:30am 26.8 25.1 19.7 65 4.6 SE 28 35 15 19 1012.7 1012.6 0.0
05/06:00am 26.5 25.5 19.6 66 4.5 SE 24 37 13 20 1012.1 1012.0 0.0
05/05:30am 26.4 25.1 19.8 67 4.3 SE 26 35 14 19 1011.7 1011.6 0.0
05/05:00am 26.3 25.8 19.9 68 4.2 SE 22 33 12 18 1011.4 1011.3 0.0
05/04:30am 26.3 26.4 20.4 70 3.9 ESE 20 32 11 17 1011.0 1010.9 0.0
05/04:00am 26.2 26.2 20.1 69 4.0 ESE 20 37 11 20 1010.8 1010.7 0.0
05/03:30am 26.2 25.3 19.1 65 4.6 ESE 22 33 12 18 1010.8 1010.7 0.0
05/03:00am 26.5 25.4 20.3 68 4.1 SE 26 37 14 20 1010.7 1010.6 0.0
05/02:30am 26.5 26.3 20.6 70 3.9 SE 22 37 12 20 1010.9 1010.8 0.0
05/02:00am 26.5 26.3 20.6 70 3.9 ESE 22 33 12 18 1011.1 1011.0 0.0
05/01:30am 26.5 26.7 20.6 70 3.9 ESE 20 33 11 18 1011.4 1011.3 0.0
05/01:00am 26.6 26.7 20.4 69 4.1 ESE 20 30 11 16 1011.6 1011.5 0.0
05/12:30am 26.7 26.5 20.5 69 4.1 ESE 22 33 12 18 1011.9 1011.8 0.0
05/12:00am 27.0 26.5 20.8 69 4.1 SE 24 32 13 17 1012.3 1012.2 0.0
 
Date/Time
EST
Temp
°C
App
Temp
°C
Dew
Point
°C
Rel
Hum
%
Delta-T
°C
Wind Press
QNH
hPa
Press
MSL
hPa
Rain since
9am
mm
Dir  Spd
km/h
Gust
km/h
Spd
kts
Gust
kts
04/11:30pm 26.8 26.2 20.4 68 4.2 SE 24 33 13 18 1012.7 1012.6 0.0
04/11:00pm 26.9 26.2 21.0 70 3.9 SE 26 35 14 19 1012.7 1012.6 0.0

Other Formats:

Comma delimited format used in spreadsheet applications
http://www.bom.gov.au/fwo/IDQ60801/IDQ60801.94188.axf

JavaScript Object Notation format (JSON) in row-major order
http://www.bom.gov.au/fwo/IDQ60801/IDQ60801.94188.json